createdAt,value
2018-04-02T00:01:12.347Z,46.90
2018-04-02T00:03:43.424Z,51.40
2018-04-02T00:06:11.928Z,48.77
2018-04-02T00:08:40.185Z,50.30
2018-04-02T00:11:08.806Z,52.40
2018-04-02T00:13:37.088Z,51.90
2018-04-02T00:16:05.409Z,50.97
2018-04-02T00:18:34.155Z,48.40
2018-04-02T00:21:02.432Z,48.30
2018-04-02T00:23:30.729Z,49.33
2018-04-02T00:25:59.720Z,47.53
2018-04-02T00:28:29.035Z,49.63
2018-04-02T00:30:57.396Z,48.93
2018-04-02T00:33:26.644Z,50.90
2018-04-02T00:35:55.148Z,51.20
2018-04-02T00:38:24.229Z,51.57
2018-04-02T00:40:52.651Z,48.30
2018-04-02T00:43:21.938Z,50.50
2018-04-02T00:45:50.385Z,50.37
2018-04-02T00:48:18.816Z,50.40
2018-04-02T00:50:48.084Z,49.93
2018-04-02T00:53:18.288Z,52.23
2018-04-02T00:55:46.730Z,47.23
2018-04-02T00:58:16.209Z,45.90
2018-04-02T01:00:44.649Z,49.63
2018-04-02T01:03:13.127Z,48.70
2018-04-02T01:05:41.663Z,50.03
2018-04-02T01:08:10.857Z,48.80
2018-04-02T01:10:39.234Z,49.03
2018-04-02T01:13:09.095Z,47.77
2018-04-02T01:15:37.375Z,49.23
2018-04-02T01:18:06.264Z,47.20
2018-04-02T01:20:34.721Z,48.27
2018-04-02T01:23:04.158Z,49.67
2018-04-02T01:25:32.672Z,46.47
2018-04-02T01:28:00.985Z,46.83
2018-04-02T01:30:30.116Z,48.37
2018-04-02T01:32:58.437Z,48.87
2018-04-02T01:35:26.772Z,48.47
2018-04-02T01:37:55.198Z,50.63
2018-04-02T01:40:23.565Z,52.10
2018-04-02T01:42:51.869Z,51.33
2018-04-02T01:45:20.877Z,50.53
2018-04-02T01:47:49.334Z,48.37
2018-04-02T01:50:17.668Z,51.93
2018-04-02T01:52:46.177Z,48.53
2018-04-02T01:55:14.496Z,48.90
2018-04-02T01:57:42.841Z,49.50
2018-04-02T02:00:11.361Z,47.07
2018-04-02T02:02:39.709Z,46.10
2018-04-02T02:05:08.907Z,45.67
2018-04-02T02:07:37.196Z,48.03
2018-04-02T02:10:06.578Z,47.30
2018-04-02T02:12:34.840Z,47.13
2018-04-02T02:15:03.388Z,47.40
2018-04-02T02:17:32.179Z,49.30
2018-04-02T02:20:00.469Z,44.50
2018-04-02T02:22:29.136Z,47.83
2018-04-02T02:24:57.610Z,46.93
2018-04-02T02:27:26.594Z,43.70
2018-04-02T02:29:55.033Z,48.97
2018-04-02T02:32:23.305Z,49.70
2018-04-02T02:34:51.856Z,49.80
2018-04-02T02:37:20.192Z,49.53
2018-04-02T02:39:49.193Z,47.17
2018-04-02T02:42:18.561Z,49.17
2018-04-02T02:44:47.101Z,48.13
2018-04-02T02:47:16.116Z,51.13
2018-04-02T02:49:44.753Z,49.80
2018-04-02T02:52:13.890Z,53.00
2018-04-02T02:54:42.580Z,51.03
2018-04-02T02:57:10.887Z,53.70
2018-04-02T02:59:39.134Z,51.27
2018-04-02T03:02:07.789Z,51.57
2018-04-02T03:04:36.080Z,50.40
2018-04-02T03:07:04.521Z,52.97
2018-04-02T03:09:33.565Z,51.50
2018-04-02T03:12:01.994Z,53.73
2018-04-02T03:14:30.609Z,49.80
2018-04-02T03:16:59.135Z,52.30
2018-04-02T03:19:27.711Z,51.33
2018-04-02T03:21:56.054Z,53.30
2018-04-02T03:24:25.147Z,59.27
2018-04-02T03:26:53.828Z,53.67
2018-04-02T03:29:22.848Z,55.33
2018-04-02T03:31:51.236Z,53.53
2018-04-02T03:34:19.590Z,53.03
2018-04-02T03:36:47.867Z,50.77
2018-04-02T03:39:16.168Z,52.50
2018-04-02T03:41:44.480Z,54.23
2018-04-02T03:44:12.697Z,54.23
2018-04-02T03:46:41.025Z,53.47
2018-04-02T03:49:09.448Z,54.33
2018-04-02T03:51:37.952Z,53.80
2018-04-02T03:54:06.384Z,52.17
2018-04-02T03:56:36.320Z,54.13
2018-04-02T03:59:05.337Z,53.77
2018-04-02T04:01:33.728Z,55.00
2018-04-02T04:04:01.971Z,53.40
2018-04-02T04:06:31.006Z,56.07
2018-04-02T04:08:59.416Z,56.03
2018-04-02T04:11:27.680Z,50.73
2018-04-02T04:13:55.964Z,56.13
2018-04-02T04:16:24.276Z,57.33
2018-04-02T04:18:53.312Z,53.97
2018-04-02T04:21:21.949Z,58.40
2018-04-02T04:23:51.172Z,57.07
2018-04-02T04:26:20.029Z,55.83
2018-04-02T04:28:49.200Z,53.27
2018-04-02T04:31:17.497Z,55.03
2018-04-02T04:33:45.772Z,55.50
2018-04-02T04:36:14.052Z,56.93
2018-04-02T04:38:42.552Z,56.77
2018-04-02T04:41:11.653Z,54.10
2018-04-02T04:43:40.658Z,55.57
2018-04-02T04:46:09.424Z,56.10
2018-04-02T04:48:38.617Z,57.63
2018-04-02T04:51:07.743Z,54.37
2018-04-02T04:53:36.180Z,58.53
2018-04-02T04:56:04.476Z,58.33
2018-04-02T04:58:32.806Z,59.20
2018-04-02T05:01:01.354Z,57.73
2018-04-02T05:03:29.647Z,58.43
2018-04-02T05:05:58.873Z,59.50
2018-04-02T05:08:27.291Z,58.33
2018-04-02T05:10:56.577Z,57.50
2018-04-02T05:13:25.260Z,59.17
2018-04-02T05:15:53.712Z,54.90
2018-04-02T05:18:22.197Z,59.10
2018-04-02T05:20:50.772Z,56.53
2018-04-02T05:23:19.448Z,59.37
2018-04-02T05:25:48.073Z,53.87
2018-04-02T05:28:16.561Z,59.63
2018-04-02T05:30:45.124Z,56.00
2018-04-02T05:33:14.040Z,57.97
2018-04-02T05:35:42.765Z,54.47
2018-04-02T05:38:11.687Z,56.97
2018-04-02T05:40:39.980Z,52.87
2018-04-02T05:43:08.636Z,55.87
2018-04-02T05:45:36.900Z,54.77
2018-04-02T05:48:05.152Z,53.30
2018-04-02T05:50:34.185Z,55.77
2018-04-02T05:53:02.432Z,49.03
2018-04-02T05:55:30.849Z,52.17
2018-04-02T05:57:59.388Z,50.83
2018-04-02T06:00:28.443Z,51.53
2018-04-02T06:02:56.813Z,54.13
2018-04-02T06:05:25.132Z,51.50
2018-04-02T06:07:54.524Z,49.13
2018-04-02T06:10:22.783Z,47.20
2018-04-02T06:12:51.301Z,45.40
2018-04-02T06:15:20.459Z,44.80
2018-04-02T06:17:48.797Z,44.03
2018-04-02T06:20:17.119Z,44.23
2018-04-02T06:22:46.591Z,43.83
2018-04-02T06:25:14.897Z,43.63
2018-04-02T06:27:43.160Z,43.33
2018-04-02T06:30:11.736Z,39.47
2018-04-02T06:32:40.070Z,40.47
2018-04-02T06:35:09.516Z,39.80
2018-04-02T06:37:37.987Z,40.50
2018-04-02T06:40:06.602Z,38.73
2018-04-02T06:42:35.291Z,40.30
2018-04-02T06:45:04.028Z,38.90
2018-04-02T06:47:32.321Z,41.57
2018-04-02T06:50:00.825Z,40.37
2018-04-02T06:52:29.148Z,38.37
2018-04-02T06:54:58.567Z,38.53
2018-04-02T06:57:26.859Z,37.70
2018-04-02T06:59:55.427Z,35.17
2018-04-02T07:02:23.918Z,37.90
2018-04-02T07:04:58.885Z,36.70
2018-04-02T07:07:27.342Z,36.03
2018-04-02T07:09:55.944Z,35.53
2018-04-02T07:12:24.513Z,33.80
2018-04-02T07:14:53.040Z,35.60
2018-04-02T07:17:21.455Z,34.33
2018-04-02T07:19:49.821Z,30.83
2018-04-02T07:22:19.140Z,32.90
2018-04-02T07:24:47.619Z,32.40
2018-04-02T07:27:15.927Z,29.87
2018-04-02T07:29:44.700Z,31.80
2018-04-02T07:32:13.348Z,32.50
2018-04-02T07:34:41.748Z,30.83
2018-04-02T07:37:11.192Z,31.30
2018-04-02T07:39:39.508Z,30.43
2018-04-02T07:42:08.037Z,30.30
2018-04-02T07:44:36.507Z,30.50
2018-04-02T07:47:04.875Z,30.10
2018-04-02T07:49:33.476Z,29.73
2018-04-02T07:52:02.107Z,29.00
2018-04-02T07:54:30.419Z,27.30
2018-04-02T07:56:58.751Z,27.93
2018-04-02T07:59:27.125Z,27.90
2018-04-02T08:01:55.464Z,28.13
2018-04-02T08:04:23.933Z,28.40
2018-04-02T08:06:52.272Z,24.50
2018-04-02T08:09:20.855Z,27.63
2018-04-02T08:11:49.347Z,26.93
2018-04-02T08:14:18.612Z,26.33
2018-04-02T08:16:46.916Z,26.00
2018-04-02T08:19:15.540Z,23.10
2018-04-02T08:21:44.649Z,27.03
2018-04-02T08:24:13.085Z,26.03
2018-04-02T08:26:41.404Z,25.80
2018-04-02T08:29:10.013Z,24.30
2018-04-02T08:31:38.300Z,23.50
2018-04-02T08:34:06.617Z,24.13
2018-04-02T08:36:35.736Z,25.00
2018-04-02T08:39:08.349Z,22.87
2018-04-02T08:41:36.632Z,21.10
2018-04-02T08:44:05.297Z,24.13
2018-04-02T08:46:33.816Z,22.53
2018-04-02T08:49:02.244Z,24.93
2018-04-02T08:51:30.762Z,23.23
2018-04-02T08:53:59.541Z,21.73
2018-04-02T08:56:27.935Z,19.60
2018-04-02T08:58:56.511Z,21.10
2018-04-02T09:01:25.112Z,21.20
2018-04-02T09:03:53.693Z,21.20
2018-04-02T09:06:22.270Z,22.07
2018-04-02T09:08:51.120Z,21.83
2018-04-02T09:11:19.506Z,22.10
2018-04-02T09:13:48.022Z,20.40
2018-04-02T09:16:16.301Z,19.57
2018-04-02T09:18:44.713Z,20.17
2018-04-02T09:21:13.865Z,20.80
2018-04-02T09:23:42.208Z,20.73
2018-04-02T09:26:10.529Z,21.93
2018-04-02T09:28:38.927Z,20.17
2018-04-02T09:31:07.634Z,20.73
2018-04-02T09:33:36.805Z,19.67
2018-04-02T09:36:05.137Z,20.43
2018-04-02T09:38:33.585Z,19.73
2018-04-02T09:41:02.796Z,17.13
2018-04-02T09:43:31.980Z,16.83
2018-04-02T09:46:01.276Z,18.27
2018-04-02T09:48:30.516Z,17.67
2018-04-02T09:50:59.288Z,16.90
2018-04-02T09:53:28.468Z,17.90
2018-04-02T09:55:57.599Z,16.53
2018-04-02T09:58:26.431Z,16.33
2018-04-02T10:00:59.485Z,15.73
2018-04-02T10:03:32.762Z,16.57
2018-04-02T10:06:01.136Z,16.70
2018-04-02T10:08:29.737Z,15.67
2018-04-02T10:10:58.141Z,14.83
2018-04-02T10:13:26.952Z,15.03
2018-04-02T10:15:55.496Z,15.23
2018-04-02T10:18:24.335Z,15.33
2018-04-02T10:20:52.731Z,14.30
2018-04-02T10:23:21.967Z,14.40
2018-04-02T10:25:50.284Z,14.47
2018-04-02T10:28:18.797Z,12.40
2018-04-02T10:30:48.021Z,13.13
2018-04-02T10:33:17.284Z,13.23
2018-04-02T10:35:46.932Z,12.57
2018-04-02T10:38:15.813Z,12.60
2018-04-02T10:40:44.164Z,11.33
2018-04-02T10:43:13.289Z,11.83
2018-04-02T10:45:41.556Z,11.77
2018-04-02T10:48:10.233Z,12.30
2018-04-02T10:50:38.635Z,12.20
2018-04-02T10:53:07.236Z,11.80
2018-04-02T10:55:35.795Z,12.23
2018-04-02T10:58:04.133Z,11.87
2018-04-02T11:00:32.607Z,12.00
2018-04-02T11:03:01.004Z,11.70
2018-04-02T11:05:30.356Z,10.43
2018-04-02T11:07:58.672Z,9.60
2018-04-02T11:10:27.796Z,8.93
2018-04-02T11:12:57.121Z,9.33
2018-04-02T11:15:25.569Z,8.83
2018-04-02T11:17:54.844Z,8.37
2018-04-02T11:20:23.208Z,8.90
2018-04-02T11:22:51.996Z,8.10
2018-04-02T11:25:20.414Z,9.03
2018-04-02T11:27:49.558Z,9.30
2018-04-02T11:30:17.998Z,9.00
2018-04-02T11:32:47.296Z,8.87
2018-04-02T11:35:17.045Z,8.80
2018-04-02T11:37:45.476Z,9.13
2018-04-02T11:40:16.224Z,9.00
2018-04-02T11:42:51.382Z,8.93
2018-04-02T11:45:26.828Z,8.83
2018-04-02T11:47:59.050Z,9.10
2018-04-02T11:50:29.353Z,8.63
2018-04-02T11:52:59.087Z,8.63
2018-04-02T11:55:28.571Z,8.20
2018-04-02T11:58:00.797Z,7.30
2018-04-02T12:00:29.944Z,7.60
2018-04-02T12:03:01.219Z,7.47
2018-04-02T12:05:30.972Z,7.67
2018-04-02T12:08:04.003Z,6.83
2018-04-02T12:10:33.914Z,7.10
2018-04-02T12:13:04.388Z,7.37
2018-04-02T12:15:36.403Z,6.60
2018-04-02T12:18:04.942Z,6.53
2018-04-02T12:20:33.431Z,6.17
2018-04-02T12:23:02.367Z,4.57
2018-04-02T12:25:32.393Z,4.40
2018-04-02T12:28:00.810Z,3.87
2018-04-02T12:30:29.392Z,4.23
2018-04-02T12:32:57.868Z,4.20
2018-04-02T12:35:27.354Z,3.83
2018-04-02T12:37:56.735Z,4.20
2018-04-02T12:40:25.292Z,4.53
2018-04-02T12:42:53.875Z,4.50
2018-04-02T12:45:23.268Z,4.20
2018-04-02T12:47:52.337Z,4.60
2018-04-02T12:50:21.753Z,4.90
2018-04-02T12:52:50.250Z,4.93
2018-04-02T12:55:18.533Z,5.87
2018-04-02T12:57:47.187Z,5.87
2018-04-02T13:00:16.469Z,6.80
2018-04-02T13:02:45.221Z,6.57
2018-04-02T13:05:13.665Z,5.70
2018-04-02T13:07:42.097Z,6.40
2018-04-02T13:10:10.749Z,5.67
2018-04-02T13:12:39.054Z,5.37
2018-04-02T13:15:08.292Z,5.00
2018-04-02T13:17:37.333Z,5.70
2018-04-02T13:20:07.102Z,5.43
2018-04-02T13:22:39.583Z,5.10
2018-04-02T13:25:09.571Z,4.83
2018-04-02T13:27:39.271Z,4.67
2018-04-02T13:30:11.056Z,4.83
2018-04-02T13:32:41.412Z,4.93
2018-04-02T13:35:11.165Z,4.57
2018-04-02T13:37:41.684Z,4.60
2018-04-02T13:40:10.596Z,4.97
2018-04-02T13:42:40.768Z,3.97
2018-04-02T13:45:11.001Z,4.37
2018-04-02T13:47:39.980Z,4.00
2018-04-02T13:50:11.205Z,4.20
2018-04-02T13:52:42.329Z,4.07
2018-04-02T13:55:12.236Z,4.23
2018-04-02T13:57:41.260Z,4.13
2018-04-02T14:00:11.303Z,4.07
2018-04-02T14:02:40.126Z,3.93
2018-04-02T14:05:08.737Z,4.03
2018-04-02T14:07:38.896Z,4.00
2018-04-02T14:10:08.019Z,3.90
2018-04-02T14:12:37.736Z,3.90
2018-04-02T14:15:10.659Z,3.70
2018-04-02T14:17:40.121Z,3.90
2018-04-02T14:20:10.344Z,3.43
2018-04-02T14:22:40.276Z,3.13
2018-04-02T14:25:09.348Z,3.53
2018-04-02T14:27:38.230Z,3.20
2018-04-02T14:30:06.663Z,3.57
2018-04-02T14:32:35.045Z,3.13
2018-04-02T14:35:04.273Z,3.23
2018-04-02T14:37:32.961Z,3.20
2018-04-02T14:40:01.545Z,3.30
2018-04-02T14:42:30.171Z,3.20
2018-04-02T14:44:58.631Z,3.77
2018-04-02T14:47:26.984Z,3.17
2018-04-02T14:49:55.992Z,3.30
2018-04-02T14:52:24.505Z,3.67
2018-04-02T14:54:53.375Z,2.93
2018-04-02T14:57:21.635Z,3.10
2018-04-02T14:59:50.332Z,3.20
2018-04-02T15:02:18.706Z,2.90
2018-04-02T15:04:47.713Z,3.00
2018-04-02T15:07:16.088Z,2.63
2018-04-02T15:09:44.456Z,2.37
2018-04-02T15:12:13.103Z,2.53
2018-04-02T15:14:42.055Z,2.70
2018-04-02T15:17:11.503Z,3.10
2018-04-02T15:19:40.802Z,2.70
2018-04-02T15:22:09.974Z,2.27
2018-04-02T15:24:39.124Z,2.50
2018-04-02T15:27:07.580Z,2.20
2018-04-02T15:29:37.106Z,2.40
2018-04-02T15:32:05.547Z,2.40
2018-04-02T15:34:33.904Z,2.40
2018-04-02T15:37:02.461Z,2.50
2018-04-02T15:39:30.819Z,2.53
2018-04-02T15:41:59.773Z,2.37
2018-04-02T15:44:28.124Z,2.67
2018-04-02T15:46:56.913Z,2.20
2018-04-02T15:49:25.587Z,2.37
2018-04-02T15:51:53.933Z,2.40
2018-04-02T15:54:23.192Z,1.93
2018-04-02T15:56:51.874Z,1.87
2018-04-02T15:59:20.527Z,2.10
2018-04-02T16:01:49.021Z,1.97
2018-04-02T16:04:17.450Z,1.97
2018-04-02T16:06:45.778Z,2.00
2018-04-02T16:09:14.124Z,2.30
2018-04-02T16:11:43.397Z,1.93
2018-04-02T16:14:12.094Z,1.80
2018-04-02T16:16:40.436Z,2.20
2018-04-02T16:19:08.911Z,1.67
2018-04-02T16:21:37.615Z,1.73
2018-04-02T16:24:06.147Z,1.40
2018-04-02T16:26:35.376Z,1.83
2018-04-02T16:29:04.695Z,2.17
2018-04-02T16:31:33.353Z,2.07
2018-04-02T16:34:01.872Z,1.50
2018-04-02T16:36:30.327Z,1.67
2018-04-02T16:38:58.937Z,1.40
2018-04-02T16:41:27.320Z,1.60
2018-04-02T16:43:55.904Z,1.70
2018-04-02T16:46:24.430Z,1.70
2018-04-02T16:48:53.824Z,1.63
2018-04-02T16:51:23.276Z,1.70
2018-04-02T16:53:52.009Z,1.60
2018-04-02T16:56:20.438Z,1.23
2018-04-02T16:58:49.117Z,1.87
2018-04-02T17:01:17.619Z,1.57
2018-04-02T17:03:46.270Z,1.57
2018-04-02T17:06:14.843Z,1.70
2018-04-02T17:08:44.234Z,1.90
2018-04-02T17:11:13.376Z,1.60
2018-04-02T17:13:41.753Z,1.73
2018-04-02T17:16:10.049Z,1.70
2018-04-02T17:18:38.360Z,1.87
2018-04-02T17:21:07.054Z,2.10
2018-04-02T17:23:36.442Z,2.00
2018-04-02T17:26:05.070Z,1.60
2018-04-02T17:28:33.649Z,2.13
2018-04-02T17:31:01.864Z,2.03
2018-04-02T17:33:31.003Z,2.40
2018-04-02T17:35:59.338Z,1.87
2018-04-02T17:38:27.787Z,2.30
2018-04-02T17:40:56.297Z,2.20
2018-04-02T17:43:24.959Z,3.73
2018-04-02T17:45:53.370Z,2.20
2018-04-02T17:48:21.634Z,2.40
2018-04-02T17:50:50.031Z,2.20
2018-04-02T17:53:18.321Z,2.43
2018-04-02T17:55:47.439Z,2.10
2018-04-02T17:58:16.447Z,2.40
2018-04-02T18:00:44.906Z,2.33
2018-04-02T18:03:13.950Z,2.13
2018-04-02T18:05:42.500Z,2.23
2018-04-02T18:08:10.985Z,2.63
2018-04-02T18:10:39.631Z,2.13
2018-04-02T18:13:08.867Z,2.10
2018-04-02T18:15:37.306Z,5.93
2018-04-02T18:18:05.671Z,2.30
2018-04-02T18:20:33.955Z,2.50
2018-04-02T18:23:02.308Z,2.23
2018-04-02T18:25:31.216Z,4.67
2018-04-02T18:27:59.607Z,2.27
2018-04-02T18:30:27.883Z,2.43
2018-04-02T18:32:56.238Z,1.90
2018-04-02T18:35:24.473Z,2.57
2018-04-02T18:37:53.777Z,2.30
2018-04-02T18:40:22.768Z,2.10
2018-04-02T18:42:51.842Z,2.17
2018-04-02T18:45:20.304Z,2.50
2018-04-02T18:47:48.630Z,2.40
2018-04-02T18:50:17.879Z,2.27
2018-04-02T18:52:46.306Z,2.07
2018-04-02T18:55:15.674Z,2.50
2018-04-02T18:57:43.997Z,2.10
2018-04-02T19:00:12.219Z,2.20
2018-04-02T19:02:40.565Z,2.10
2018-04-02T19:05:08.816Z,2.50
2018-04-02T19:07:37.930Z,2.50
2018-04-02T19:10:06.432Z,2.40
2018-04-02T19:12:34.693Z,2.70
2018-04-02T19:15:03.328Z,2.43
2018-04-02T19:17:31.761Z,2.07
2018-04-02T19:20:00.382Z,2.30
2018-04-02T19:22:28.720Z,1.97
2018-04-02T19:24:56.974Z,2.60
2018-04-02T19:27:25.997Z,2.10
2018-04-02T19:29:54.322Z,2.20
2018-04-02T19:32:23.356Z,2.07
2018-04-02T19:34:51.976Z,2.10
2018-04-02T19:37:20.203Z,2.47
2018-04-02T19:39:49.310Z,2.47
2018-04-02T19:42:17.528Z,2.20
2018-04-02T19:44:45.876Z,2.57
2018-04-02T19:47:14.234Z,2.00
2018-04-02T19:49:43.320Z,2.40
2018-04-02T19:52:12.686Z,2.30
2018-04-02T19:54:40.945Z,2.40
2018-04-02T19:57:09.186Z,2.40
2018-04-02T19:59:37.418Z,2.87
2018-04-02T20:02:05.681Z,2.60
2018-04-02T20:04:33.943Z,2.70
2018-04-02T20:07:02.252Z,2.70
2018-04-02T20:09:30.546Z,2.53
2018-04-02T20:11:58.819Z,5.80
2018-04-02T20:14:27.115Z,2.90
2018-04-02T20:16:56.387Z,2.70
2018-04-02T20:19:24.672Z,2.37
2018-04-02T20:21:53.113Z,2.70
2018-04-02T20:24:21.537Z,2.47
2018-04-02T20:26:50.120Z,2.57
2018-04-02T20:29:19.109Z,2.97
2018-04-02T20:31:47.454Z,3.97
2018-04-02T20:34:15.966Z,2.63
2018-04-02T20:36:44.281Z,2.70
2018-04-02T20:39:12.513Z,2.70
2018-04-02T20:41:40.741Z,2.83
2018-04-02T20:44:09.598Z,2.70
2018-04-02T20:46:38.712Z,2.77
2018-04-02T20:49:14.497Z,2.53
2018-04-02T20:51:44.837Z,2.70
2018-04-02T20:54:13.307Z,2.20
2018-04-02T20:56:41.611Z,2.40
2018-04-02T20:59:09.909Z,2.53
2018-04-02T21:01:38.925Z,2.60
2018-04-02T21:04:08.062Z,2.60
2018-04-02T21:06:36.317Z,2.37
2018-04-02T21:09:06.105Z,2.87
2018-04-02T21:11:35.170Z,2.90
2018-04-02T21:14:03.468Z,2.70
2018-04-02T21:16:32.511Z,2.80
2018-04-02T21:19:00.769Z,2.33
2018-04-02T21:21:29.022Z,2.13
2018-04-02T21:23:58.064Z,2.63
2018-04-02T21:26:26.308Z,2.93
2018-04-02T21:28:54.526Z,2.10
2018-04-02T21:31:22.875Z,2.87
2018-04-02T21:33:52.031Z,2.67
2018-04-02T21:36:21.087Z,2.80
2018-04-02T21:38:49.506Z,2.57
2018-04-02T21:41:18.792Z,2.30
2018-04-02T21:43:47.097Z,2.57
2018-04-02T21:46:16.327Z,3.17
2018-04-02T21:48:44.902Z,2.40
2018-04-02T21:51:13.305Z,2.50
2018-04-02T21:53:41.705Z,2.53
2018-04-02T21:56:10.188Z,2.17
2018-04-02T21:58:38.529Z,1.97
2018-04-02T22:01:06.826Z,1.90
2018-04-02T22:03:38.960Z,2.53
2018-04-02T22:06:17.898Z,2.33
2018-04-02T22:08:49.040Z,2.37
2018-04-02T22:11:20.306Z,2.53
2018-04-02T22:13:49.785Z,2.10
2018-04-02T22:16:20.786Z,3.13
2018-04-02T22:18:49.719Z,2.50
2018-04-02T22:21:23.373Z,2.10
2018-04-02T22:23:52.950Z,2.57
2018-04-02T22:26:23.269Z,2.10
2018-04-02T22:28:56.248Z,2.83
2018-04-02T22:31:27.686Z,2.60
2018-04-02T22:33:58.705Z,2.30
2018-04-02T22:36:29.190Z,2.20
2018-04-02T22:38:58.507Z,2.27
2018-04-02T22:41:26.849Z,2.07
2018-04-02T22:43:55.216Z,2.63
2018-04-02T22:46:23.530Z,2.27
2018-04-02T22:48:52.218Z,2.20
2018-04-02T22:51:21.135Z,2.23
2018-04-02T22:53:49.456Z,2.30
2018-04-02T22:56:17.713Z,2.70
2018-04-02T22:58:45.999Z,2.70
2018-04-02T23:01:14.615Z,2.37
2018-04-02T23:03:42.876Z,2.30
2018-04-02T23:06:11.274Z,2.13
2018-04-02T23:08:39.676Z,2.43
2018-04-02T23:11:08.035Z,2.20
2018-04-02T23:13:36.429Z,2.30
2018-04-02T23:16:04.764Z,2.27
2018-04-02T23:18:33.264Z,2.57
2018-04-02T23:21:01.554Z,2.50
2018-04-02T23:23:29.784Z,2.47
2018-04-02T23:25:58.020Z,2.20
2018-04-02T23:28:26.510Z,2.70
2018-04-02T23:30:54.818Z,2.30
2018-04-02T23:33:23.113Z,2.40
2018-04-02T23:35:51.398Z,2.77
2018-04-02T23:38:19.877Z,2.73
2018-04-02T23:40:48.106Z,2.90
2018-04-02T23:43:16.351Z,2.80
2018-04-02T23:45:44.704Z,2.80
2018-04-02T23:48:13.082Z,2.50
2018-04-02T23:50:41.779Z,2.90
2018-04-02T23:53:10.282Z,2.70
2018-04-02T23:55:38.850Z,2.53
2018-04-02T23:58:07.259Z,2.60
